Time;durP1;ratioP1;P1;durP2;ratioP2;P2;SDS_P1;SDS_P2;PMS_P1;PMS_P2;Temp;Humidity;BMP_temperature;BMP_pressure;BME280_temperature;BME280_humidity;BME280_pressure;Samples;Min_cycle;Max_cycle;Signal;HPM_P1;HPM_P2
2022/05/03 00:00:05;;;;;;;7.10;4.97;;;10.70;99.90;;;;;;5021786;28;20222;-59
2022/05/03 00:02:45;;;;;;;6.07;4.90;;;10.70;99.90;;;;;;5046593;28;20188;-58
2022/05/03 00:05:21;;;;;;;6.63;5.03;;;10.70;99.90;;;;;;5047969;28;20721;-58
2022/05/03 00:08:03;;;;;;;8.57;5.23;;;10.60;99.90;;;;;;5047616;28;20669;-58
2022/05/03 00:10:51;;;;;;;6.93;5.03;;;10.70;99.90;;;;;;5047510;28;20227;-58
2022/05/03 00:13:21;;;;;;;6.43;5.07;;;10.60;99.90;;;;;;5046375;28;20219;-59
2022/05/03 00:15:50;;;;;;;5.30;4.80;;;10.50;99.90;;;;;;5047111;28;20558;-59
2022/05/03 00:18:17;;;;;;;8.93;6.13;;;10.50;99.90;;;;;;5047836;28;20208;-58
2022/05/03 00:20:47;;;;;;;6.10;5.17;;;10.50;99.90;;;;;;5048509;28;20709;-58
2022/05/03 00:23:15;;;;;;;6.43;4.87;;;10.50;99.90;;;;;;5047273;28;20192;-59
2022/05/03 00:25:43;;;;;;;8.23;5.00;;;10.40;99.90;;;;;;5023302;28;20194;-59
2022/05/03 00:28:10;;;;;;;5.93;5.33;;;10.40;99.90;;;;;;5031419;28;20312;-59
2022/05/03 00:30:38;;;;;;;6.87;4.77;;;10.30;99.90;;;;;;5046978;28;20207;-58
2022/05/03 00:33:07;;;;;;;5.67;4.70;;;10.30;99.90;;;;;;5030564;28;20299;-58
2022/05/03 00:35:34;;;;;;;6.70;4.67;;;10.20;99.90;;;;;;5047313;28;20730;-58
2022/05/03 00:38:01;;;;;;;9.83;5.80;;;10.20;99.90;;;;;;5028986;28;20210;-59
2022/05/03 00:40:32;;;;;;;6.20;4.93;;;10.20;99.90;;;;;;5027750;28;20302;-59
2022/05/03 00:43:18;;;;;;;6.13;5.53;;;10.10;99.90;;;;;;5025613;28;20197;-59
2022/05/03 00:46:05;;;;;;;8.30;5.53;;;10.10;99.90;;;;;;5001025;28;20248;-59
2022/05/03 00:49:03;;;;;;;6.77;4.90;;;10.00;99.90;;;;;;5026648;28;20188;-59
2022/05/03 00:52:05;;;;;;;7.47;5.17;;;10.00;99.90;;;;;;5003429;28;20696;-59
2022/05/03 00:54:35;;;;;;;6.43;4.93;;;10.00;99.90;;;;;;5022791;28;20207;-60
2022/05/03 00:57:33;;;;;;;6.10;5.50;;;9.90;99.90;;;;;;5027382;28;20192;-59
2022/05/03 01:00:14;;;;;;;10.43;6.63;;;10.00;99.90;;;;;;5010514;28;20239;-59
2022/05/03 01:02:50;;;;;;;9.90;7.57;;;9.90;99.90;;;;;;5014466;28;20201;-59
2022/05/03 01:05:25;;;;;;;13.50;6.47;;;9.90;99.90;;;;;;5028019;28;20762;-61
2022/05/03 01:08:05;;;;;;;7.30;5.80;;;9.80;99.90;;;;;;5028359;28;20203;-60
2022/05/03 01:10:52;;;;;;;9.73;6.53;;;9.80;99.90;;;;;;5002520;28;20204;-59
2022/05/03 01:13:35;;;;;;;9.77;5.80;;;9.70;1.00;;;;;;5027460;28;20258;-60
2022/05/03 01:16:08;;;;;;;10.67;6.30;;;9.70;1.00;;;;;;5007413;28;20651;-59
2022/05/03 01:18:54;;;;;;;8.30;5.53;;;9.70;1.00;;;;;;5017441;28;20200;-59
2022/05/03 01:22:05;;;;;;;8.23;5.50;;;9.60;1.00;;;;;;5028185;28;20180;-59
2022/05/03 01:24:48;;;;;;;8.20;5.93;;;9.60;1.00;;;;;;5028121;28;20295;-59
2022/05/03 01:27:49;;;;;;;8.20;6.23;;;9.60;1.00;;;;;;5009950;28;20230;-59
2022/05/03 01:30:16;;;;;;;9.57;5.73;;;9.50;1.00;;;;;;5027207;28;20277;-59
2022/05/03 01:32:45;;;;;;;9.60;5.87;;;9.50;1.00;;;;;;5026771;28;20208;-59
2022/05/03 01:35:16;;;;;;;9.97;6.43;;;9.40;1.00;;;;;;5019616;28;20203;-59
2022/05/03 01:38:05;;;;;;;8.37;5.73;;;9.40;1.00;;;;;;5029662;28;20513;-59
2022/05/03 01:40:40;;;;;;;8.10;6.80;;;9.40;1.00;;;;;;5046880;28;20243;-59
2022/05/03 01:43:20;;;;;;;8.67;5.80;;;9.30;1.00;;;;;;5029208;28;20266;-59
2022/05/03 01:45:47;;;;;;;8.90;6.27;;;9.30;1.00;;;;;;5048430;28;20226;-59
2022/05/03 01:52:08;;;;;;;8.17;6.50;;;9.20;1.00;;;;;;5046219;28;20282;-59
2022/05/03 01:55:00;;;;;;;7.87;6.73;;;9.20;1.00;;;;;;5046923;28;20202;-59
2022/05/03 01:57:41;;;;;;;12.23;6.73;;;9.20;1.00;;;;;;5045618;28;20270;-61
2022/05/03 02:00:10;;;;;;;9.27;6.00;;;9.10;1.00;;;;;;5046120;28;20215;-59
2022/05/03 02:03:04;;;;;;;7.53;5.97;;;9.00;1.00;;;;;;5047297;28;20187;-59
2022/05/03 02:05:39;;;;;;;10.93;6.37;;;9.00;1.00;;;;;;5045203;28;20238;-59
2022/05/03 02:08:11;;;;;;;9.20;5.97;;;8.90;1.00;;;;;;5028674;28;20293;-59
2022/05/03 02:11:16;;;;;;;6.90;6.20;;;8.90;1.00;;;;;;5027250;28;20303;-57
2022/05/03 02:17:10;;;;;;;9.53;6.20;;;8.60;1.00;;;;;;5028020;28;20626;-59
2022/05/03 02:20:00;;;;;;;7.63;6.30;;;8.60;1.00;;;;;;5045837;28;20690;-58
2022/05/03 02:22:52;;;;;;;8.47;6.60;;;8.60;1.00;;;;;;5046139;28;20641;-59
2022/05/03 02:25:49;;;;;;;8.47;6.73;;;8.60;1.00;;;;;;5046651;28;20226;-59
2022/05/03 02:28:31;;;;;;;7.77;6.27;;;8.60;1.00;;;;;;5045595;28;20282;-59
2022/05/03 02:31:03;;;;;;;7.50;6.70;;;8.60;1.00;;;;;;5045928;28;20623;-59
2022/05/03 02:33:44;;;;;;;9.87;6.87;;;8.60;1.00;;;;;;5044722;28;20298;-59
2022/05/03 02:36:17;;;;;;;9.20;6.90;;;8.50;1.00;;;;;;5044088;28;20231;-59
2022/05/03 02:38:54;;;;;;;8.87;6.33;;;8.50;1.00;;;;;;5046568;28;20349;-59
2022/05/03 02:41:22;;;;;;;10.07;6.97;;;8.40;1.00;;;;;;5046709;28;20298;-59
2022/05/03 02:43:50;;;;;;;8.30;6.63;;;8.40;1.00;;;;;;5044862;28;20259;-60
2022/05/03 02:46:38;;;;;;;6.70;5.93;;;8.40;1.00;;;;;;5043417;28;20804;-60
2022/05/03 02:49:14;;;;;;;10.50;6.90;;;8.40;1.00;;;;;;5012755;28;20582;-59
2022/05/03 02:51:53;;;;;;;10.07;6.57;;;8.30;1.00;;;;;;5049395;28;20203;-60
2022/05/03 02:54:25;;;;;;;7.77;6.70;;;8.40;1.00;;;;;;5016612;28;20211;-60
2022/05/03 02:57:17;;;;;;;9.13;6.70;;;8.30;1.00;;;;;;5049133;28;20670;-59
2022/05/03 03:02:53;;;;;;;8.27;7.20;;;8.20;1.00;;;;;;5047418;28;20532;-58
2022/05/03 03:05:23;;;;;;;8.13;6.67;;;8.20;1.00;;;;;;5046843;28;21341;-59
2022/05/03 03:07:58;;;;;;;11.53;7.30;;;8.20;1.00;;;;;;5046941;28;20563;-58
2022/05/03 03:10:43;;;;;;;9.80;7.23;;;8.20;1.00;;;;;;5050763;28;20233;-59
2022/05/03 03:13:51;;;;;;;12.13;7.77;;;8.10;1.00;;;;;;5049522;28;20265;-59
2022/05/03 03:16:39;;;;;;;8.50;7.00;;;8.10;1.00;;;;;;5048644;28;20223;-59
2022/05/03 03:19:33;;;;;;;6.93;5.50;;;8.10;1.00;;;;;;5050928;28;20227;-59
2022/05/03 03:22:02;;;;;;;8.33;6.43;;;8.10;1.00;;;;;;5048931;28;20195;-59
2022/05/03 03:24:29;;;;;;;8.30;6.03;;;8.10;1.00;;;;;;5048174;28;20203;-59
2022/05/03 03:27:00;;;;;;;9.57;6.10;;;8.10;1.00;;;;;;5050460;28;20269;-59
2022/05/03 03:29:28;;;;;;;7.70;6.33;;;8.00;1.00;;;;;;5050760;28;20333;-59
2022/05/03 03:31:58;;;;;;;7.00;6.30;;;8.00;1.00;;;;;;5050134;28;20204;-59
2022/05/03 03:34:28;;;;;;;8.60;7.00;;;8.00;1.00;;;;;;5049340;28;20187;-59
2022/05/03 03:37:01;;;;;;;6.57;5.63;;;8.00;1.00;;;;;;5046779;28;22439;-60
2022/05/03 03:39:33;;;;;;;8.80;6.00;;;7.90;1.00;;;;;;5048510;28;20222;-59
2022/05/03 03:42:05;;;;;;;6.93;6.13;;;7.90;1.00;;;;;;5048030;28;20195;-59
2022/05/03 03:44:33;;;;;;;7.80;5.73;;;7.90;1.00;;;;;;5048203;28;20554;-59
2022/05/03 03:47:02;;;;;;;10.80;6.10;;;7.90;1.00;;;;;;5049097;28;20615;-59
2022/05/03 03:49:30;;;;;;;7.43;5.80;;;7.90;1.00;;;;;;5021743;28;20194;-59
2022/05/03 03:52:07;;;;;;;7.10;6.40;;;8.00;1.00;;;;;;5046944;28;20183;-59
2022/05/03 03:54:35;;;;;;;8.63;5.73;;;8.00;1.00;;;;;;5023050;28;20256;-59
2022/05/03 03:57:04;;;;;;;9.17;5.27;;;8.00;1.00;;;;;;5029623;28;20220;-59
2022/05/03 03:59:32;;;;;;;7.80;5.83;;;8.00;1.00;;;;;;5044976;28;20321;-60
2022/05/03 04:02:00;;;;;;;7.10;5.27;;;7.90;1.00;;;;;;5011803;28;20278;-58
2022/05/03 04:04:31;;;;;;;6.03;5.40;;;7.90;1.00;;;;;;5029660;28;20271;-59
2022/05/03 04:06:59;;;;;;;7.17;6.00;;;7.90;1.00;;;;;;5028989;28;20230;-59
2022/05/03 04:09:27;;;;;;;8.27;5.57;;;7.90;1.00;;;;;;5046071;28;20216;-59
2022/05/03 04:11:56;;;;;;;6.80;5.50;;;7.90;1.00;;;;;;5044773;28;20196;-59
2022/05/03 04:14:23;;;;;;;7.10;5.77;;;8.00;1.00;;;;;;5043447;28;20195;-61
2022/05/03 04:16:50;;;;;;;8.30;5.77;;;8.00;1.00;;;;;;5028322;28;20257;-58
2022/05/03 04:19:17;;;;;;;8.30;7.40;;;8.10;1.00;;;;;;5046345;28;20256;-59
2022/05/03 04:21:46;;;;;;;6.40;5.07;;;8.10;1.00;;;;;;5042984;28;20638;-58
2022/05/03 04:24:13;;;;;;;6.97;4.90;;;8.20;1.00;;;;;;5009431;28;20204;-60
2022/05/03 04:26:40;;;;;;;5.90;5.30;;;8.20;1.00;;;;;;5030333;28;20195;-59
2022/05/03 04:29:10;;;;;;;7.07;5.90;;;8.40;1.00;;;;;;5045767;28;20556;-59
2022/05/03 04:31:37;;;;;;;8.50;5.27;;;8.40;1.00;;;;;;5046477;28;20518;-59
2022/05/03 04:34:05;;;;;;;9.00;4.83;;;8.50;1.00;;;;;;5027530;28;20745;-59
2022/05/03 04:36:33;;;;;;;7.77;5.03;;;8.70;1.00;;;;;;5047001;28;20756;-59
2022/05/03 04:39:00;;;;;;;8.33;5.47;;;9.00;1.00;;;;;;5044530;28;20247;-59
2022/05/03 04:41:27;;;;;;;6.60;5.03;;;9.20;1.00;;;;;;5044362;28;20273;-60
2022/05/03 04:43:54;;;;;;;6.30;5.20;;;9.40;1.00;;;;;;5042842;28;20547;-60
2022/05/03 04:46:21;;;;;;;6.93;5.40;;;9.00;1.00;;;;;;5047022;28;20286;-61
2022/05/03 04:48:51;;;;;;;7.00;5.73;;;9.20;1.00;;;;;;5044784;28;20313;-59
2022/05/03 04:51:20;;;;;;;9.13;5.90;;;8.80;1.00;;;;;;5021404;28;20279;-59
2022/05/03 04:53:48;;;;;;;11.70;6.17;;;8.60;1.00;;;;;;5029440;28;20265;-61
2022/05/03 04:56:22;;;;;;;8.20;5.17;;;8.80;1.00;;;;;;5048296;28;20202;-60
2022/05/03 04:58:56;;;;;;;9.53;5.33;;;9.30;1.00;;;;;;5048188;28;20199;-60
2022/05/03 05:01:23;;;;;;;6.20;5.07;;;10.00;1.00;;;;;;5046603;28;20204;-60
2022/05/03 05:03:50;;;;;;;8.30;5.10;;;10.80;1.00;;;;;;5028236;28;20232;-60
2022/05/03 05:06:19;;;;;;;9.00;6.80;;;11.20;1.00;;;;;;5026832;28;20676;-60
2022/05/03 05:08:46;;;;;;;9.20;5.70;;;11.90;1.00;;;;;;5026648;28;20207;-60
2022/05/03 05:11:13;;;;;;;7.67;4.80;;;12.60;99.90;;;;;;5047853;28;20753;-60
2022/05/03 05:13:41;;;;;;;7.00;4.30;;;13.20;99.90;;;;;;5048485;28;20207;-59
2022/05/03 05:16:08;;;;;;;4.60;4.10;;;13.00;99.90;;;;;;5044706;28;20221;-61
2022/05/03 05:18:35;;;;;;;6.60;4.63;;;12.90;99.90;;;;;;5031439;28;20541;-58
2022/05/03 05:21:02;;;;;;;4.97;4.10;;;12.50;99.90;;;;;;5038684;28;20203;-60
2022/05/03 05:23:30;;;;;;;4.13;3.63;;;12.40;99.90;;;;;;5036014;28;20202;-59
2022/05/03 05:25:57;;;;;;;4.37;3.73;;;13.20;99.90;;;;;;5048975;28;20204;-60
2022/05/03 05:28:26;;;;;;;7.00;3.90;;;13.90;99.90;;;;;;5049128;28;20211;-59
2022/05/03 05:30:53;;;;;;;6.03;3.70;;;14.60;99.90;;;;;;5047260;28;20225;-59
2022/05/03 05:33:22;;;;;;;4.87;3.67;;;15.10;99.90;;;;;;5038218;28;20635;-61
2022/05/03 05:35:50;;;;;;;6.33;3.80;;;16.00;99.90;;;;;;5048616;28;20270;-59
2022/05/03 05:38:17;;;;;;;6.03;3.60;;;16.40;99.90;;;;;;5029710;28;20297;-59
2022/05/03 05:40:46;;;;;;;4.13;3.70;;;15.80;99.90;;;;;;5047180;28;20702;-58
2022/05/03 05:43:15;;;;;;;4.20;3.65;;;17.20;99.90;;;;;;5048688;28;20230;-59
2022/05/03 05:45:42;;;;;;;5.10;3.60;;;18.00;99.90;;;;;;5047583;28;20234;-59
2022/05/03 05:48:10;;;;;;;4.55;3.45;;;18.20;99.90;;;;;;5048531;28;20693;-59
2022/05/03 05:50:37;;;;;;;5.53;3.80;;;18.60;99.90;;;;;;5046700;28;20211;-59
2022/05/03 05:55:50;;;;;;;7.93;2.85;;;20.50;99.90;;;;;;5030475;28;20215;-59
2022/05/03 05:58:17;;;;;;;3.20;2.90;;;21.10;99.90;;;;;;5047143;28;20299;-58
2022/05/03 06:00:44;;;;;;;6.30;3.67;;;21.20;99.90;;;;;;5028108;28;20247;-59
2022/05/03 06:03:11;;;;;;;5.57;3.45;;;21.00;99.90;;;;;;5047995;28;20239;-58
2022/05/03 06:05:38;;;;;;;7.10;3.00;;;21.70;99.90;;;;;;5046701;28;20677;-59
2022/05/03 06:08:06;;;;;;;3.47;2.45;;;22.10;99.90;;;;;;5029263;28;20215;-59
2022/05/03 06:10:33;;;;;;;3.20;2.90;;;21.80;99.90;;;;;;5047067;28;20468;-58
2022/05/03 06:13:02;;;;;;;3.60;2.83;;;22.00;99.90;;;;;;5048248;28;20199;-59
2022/05/03 06:15:30;;;;;;;4.80;3.28;;;22.40;99.90;;;;;;5047867;28;20784;-59
2022/05/03 06:17:57;;;;;;;3.47;2.80;;;22.40;99.90;;;;;;5048892;28;20201;-59
2022/05/03 06:20:25;;;;;;;4.47;2.90;;;23.00;99.90;;;;;;5047254;28;20594;-59
2022/05/03 06:22:52;;;;;;;5.55;3.00;;;23.60;99.90;;;;;;5029921;28;20613;-58
2022/05/03 06:25:19;;;;;;;3.35;2.75;;;21.90;99.90;;;;;;5048944;28;20227;-59
2022/05/03 06:27:46;;;;;;;4.90;3.00;;;22.40;99.90;;;;;;5023013;28;20203;-59
2022/05/03 06:30:13;;;;;;;6.40;2.20;;;22.80;99.90;;;;;;5046639;28;20719;-59
2022/05/03 06:32:43;;;;;;;2.80;2.50;;;24.30;99.90;;;;;;5044730;28;20683;-59
2022/05/03 06:35:14;;;;;;;4.22;2.40;;;24.60;99.90;;;;;;5045497;28;20203;-59
2022/05/03 06:37:42;;;;;;;3.60;2.50;;;24.90;99.90;;;;;;5041965;28;20326;-59
2022/05/03 06:40:11;;;;;;;2.50;2.30;;;25.50;99.90;;;;;;5037550;28;20218;-59
2022/05/03 06:42:39;;;;;;;3.50;2.25;;;26.50;99.90;;;;;;5030253;28;20196;-59
2022/05/03 06:45:07;;;;;;;3.38;2.22;;;26.40;99.90;;;;;;5043164;28;20219;-59
2022/05/03 06:47:42;;;;;;;2.97;2.10;;;26.60;99.90;;;;;;5042583;28;20568;-60
2022/05/03 06:50:10;;;;;;;2.47;2.22;;;27.20;99.90;;;;;;5043865;28;20932;-59
2022/05/03 06:52:37;;;;;;;2.97;2.50;;;27.30;99.90;;;;;;5045620;28;20195;-58
2022/05/03 06:55:05;;;;;;;2.92;2.20;;;28.00;99.90;;;;;;5045401;28;20195;-59
2022/05/03 06:57:33;;;;;;;2.83;2.00;;;28.30;99.90;;;;;;5043401;28;20269;-60
2022/05/03 07:00:02;;;;;;;3.50;2.17;;;28.40;99.90;;;;;;5042864;28;20222;-59
2022/05/03 07:02:31;;;;;;;2.72;2.08;;;27.50;99.90;;;;;;5060496;28;20216;-63
2022/05/03 07:05:02;;;;;;;2.28;1.90;;;28.00;99.90;;;;;;5036761;28;20200;-59
2022/05/03 07:07:30;;;;;;;5.97;2.20;;;29.10;99.90;;;;;;5047143;28;20210;-59
2022/05/03 07:10:00;;;;;;;1.90;1.70;;;28.70;99.90;;;;;;5045786;28;20270;-58
2022/05/03 07:12:28;;;;;;;4.50;1.92;;;29.10;99.90;;;;;;5047646;28;20200;-59
2022/05/03 07:14:59;;;;;;;3.10;1.83;;;29.40;99.90;;;;;;5047164;28;20685;-59
2022/05/03 07:22:58;;;;;;;4.40;1.40;;;30.10;99.90;;;;;;5062432;28;20260;-60
2022/05/03 07:25:26;;;;;;;1.58;1.23;;;30.70;99.90;;;;;;5039089;28;20215;-59
2022/05/03 07:27:53;;;;;;;1.40;1.30;;;30.00;99.90;;;;;;5039442;28;20220;-59
2022/05/03 07:30:20;;;;;;;2.35;1.98;;;30.80;99.90;;;;;;5020919;28;20251;-60
2022/05/03 07:32:47;;;;;;;2.65;0.93;;;31.30;99.90;;;;;;5048028;28;20735;-59
2022/05/03 07:35:15;;;;;;;2.97;1.20;;;31.50;99.90;;;;;;5050448;28;20199;-59
2022/05/03 07:37:42;;;;;;;2.63;1.45;;;31.90;99.90;;;;;;5049330;28;20717;-59
2022/05/03 07:40:10;;;;;;;2.13;1.23;;;30.30;99.90;;;;;;5048912;28;20200;-59
2022/05/03 07:42:37;;;;;;;3.30;1.30;;;28.50;99.90;;;;;;5049865;28;20305;-58
2022/05/03 07:45:08;;;;;;;3.92;1.20;;;26.50;99.90;;;;;;5049275;28;20269;-61
2022/05/03 07:47:41;;;;;;;1.67;1.38;;;27.60;99.90;;;;;;5048307;28;20191;-60
2022/05/03 07:50:12;;;;;;;1.85;1.05;;;30.10;99.90;;;;;;5048545;28;20215;-62
2022/05/03 07:52:40;;;;;;;4.63;1.30;;;31.70;99.90;;;;;;5057793;28;20191;-60
2022/05/03 07:55:08;;;;;;;2.63;1.38;;;31.60;99.90;;;;;;5048427;28;20701;-61
2022/05/03 07:57:35;;;;;;;1.15;1.00;;;32.50;99.90;;;;;;5048126;28;20203;-58
2022/05/03 08:00:04;;;;;;;9.95;1.30;;;33.50;99.90;;;;;;5045905;28;20215;-59
2022/05/03 08:02:31;;;;;;;2.05;1.10;;;32.40;99.90;;;;;;5049619;28;20226;-59
2022/05/03 08:04:59;;;;;;;5.35;1.33;;;30.60;99.90;;;;;;5048144;28;20200;-59
2022/05/03 08:07:26;;;;;;;1.88;1.20;;;29.10;99.90;;;;;;5048862;28;20227;-60
2022/05/03 08:09:54;;;;;;;1.88;1.00;;;31.50;99.90;;;;;;5041622;28;20199;-59
2022/05/03 08:12:24;;;;;;;2.85;1.15;;;30.70;99.90;;;;;;5064841;28;20297;-59
2022/05/03 08:14:53;;;;;;;2.05;1.20;;;30.30;99.90;;;;;;5050173;28;20218;-59
2022/05/03 08:17:20;;;;;;;1.27;0.90;;;30.00;99.90;;;;;;5048208;28;20238;-59
2022/05/03 08:19:47;;;;;;;2.55;0.90;;;32.10;99.90;;;;;;5047536;28;20230;-59
2022/05/03 08:22:14;;;;;;;2.67;1.40;;;34.30;99.90;;;;;;5047740;28;20234;-59
2022/05/03 08:24:41;;;;;;;1.55;1.20;;;35.40;99.90;;;;;;5047084;28;20196;-59
2022/05/03 08:27:08;;;;;;;2.35;1.13;;;33.70;99.90;;;;;;5041365;28;20227;-59
2022/05/03 08:29:35;;;;;;;2.03;1.10;;;33.30;99.90;;;;;;5047429;28;20268;-59
2022/05/03 08:32:03;;;;;;;1.42;1.15;;;35.20;99.90;;;;;;5045469;28;20710;-59
2022/05/03 08:34:34;;;;;;;1.25;1.15;;;36.90;99.90;;;;;;5048487;28;20195;-59
2022/05/03 08:42:41;;;;;;;2.17;1.23;;;35.30;99.90;;;;;;5039877;28;20700;-59
2022/05/03 08:45:09;;;;;;;1.25;1.15;;;33.10;99.90;;;;;;5030351;28;20218;-61
2022/05/03 08:47:38;;;;;;;3.97;1.17;;;34.60;99.90;;;;;;5048020;28;20315;-59
2022/05/03 08:50:07;;;;;;;1.52;1.08;;;34.90;99.90;;;;;;5045203;28;20504;-59
2022/05/03 08:52:46;;;;;;;3.88;1.48;;;33.70;99.90;;;;;;5045945;28;20187;-58
2022/05/03 08:55:14;;;;;;;4.90;1.48;;;32.90;99.90;;;;;;5037735;28;20264;-59
2022/05/03 08:57:44;;;;;;;3.35;2.03;;;32.70;99.90;;;;;;5044117;28;20196;-59
2022/05/03 09:00:13;;;;;;;2.10;1.42;;;33.20;99.90;;;;;;5048784;28;20207;-59
2022/05/03 09:02:46;;;;;;;1.20;1.10;;;34.20;99.90;;;;;;5047110;28;20239;-59
2022/05/03 09:05:13;;;;;;;1.58;1.20;;;34.40;99.90;;;;;;5048228;28;20227;-59
2022/05/03 09:07:55;;;;;;;3.22;1.50;;;36.50;99.90;;;;;;5039586;28;20687;-59
2022/05/03 09:10:34;;;;;;;2.75;1.40;;;36.10;99.90;;;;;;5047938;28;20207;-59
2022/05/03 09:13:23;;;;;;;1.63;1.30;;;32.90;99.90;;;;;;5047334;28;20223;-59
2022/05/03 09:15:53;;;;;;;4.07;1.63;;;34.60;99.90;;;;;;5045985;28;20363;-59
2022/05/03 09:18:31;;;;;;;4.18;1.30;;;34.70;99.90;;;;;;5046475;28;20195;-59
2022/05/03 09:23:59;;;;;;;3.13;1.38;;;32.30;99.90;;;;;;5045317;28;20631;-59
2022/05/03 09:26:31;;;;;;;1.98;1.40;;;33.40;99.90;;;;;;5045198;28;20188;-59
2022/05/03 09:29:01;;;;;;;2.90;1.50;;;33.20;99.90;;;;;;5045813;28;20688;-59
2022/05/03 09:31:33;;;;;;;1.63;1.42;;;35.00;99.90;;;;;;5045036;28;20234;-60
2022/05/03 09:34:27;;;;;;;4.00;1.42;;;34.40;99.90;;;;;;5041401;28;20322;-60
2022/05/03 09:37:05;;;;;;;3.63;1.55;;;32.00;99.90;;;;;;5061632;28;20231;-60
2022/05/03 09:39:42;;;;;;;3.38;1.33;;;30.70;99.90;;;;;;5047712;28;20215;-60
2022/05/03 09:42:09;;;;;;;2.55;1.55;;;29.90;99.90;;;;;;5048198;28;20203;-58
2022/05/03 09:44:58;;;;;;;2.13;1.40;;;31.30;99.90;;;;;;5048035;28;20200;-59
2022/05/03 09:47:34;;;;;;;4.30;1.70;;;32.00;99.90;;;;;;5037978;28;20254;-59
2022/05/03 09:50:01;;;;;;;2.78;1.40;;;29.50;99.90;;;;;;5046351;28;20212;-60
2022/05/03 09:52:37;;;;;;;4.05;1.40;;;29.10;99.90;;;;;;5032397;28;20222;-58
2022/05/03 09:55:09;;;;;;;1.60;1.50;;;31.00;99.90;;;;;;5047209;28;20199;-59
2022/05/03 09:57:39;;;;;;;1.85;1.38;;;32.30;99.90;;;;;;5029274;28;20638;-62
2022/05/03 10:00:08;;;;;;;2.92;1.42;;;33.00;99.90;;;;;;5049063;28;20203;-59
2022/05/03 10:02:43;;;;;;;3.53;1.27;;;34.90;99.90;;;;;;5046985;28;20211;-60
2022/05/03 10:05:15;;;;;;;4.57;1.55;;;35.70;99.90;;;;;;5047635;28;20550;-60
2022/05/03 10:07:43;;;;;;;1.75;1.42;;;34.90;99.90;;;;;;5048031;28;20187;-59
2022/05/03 10:10:12;;;;;;;3.00;1.45;;;35.90;99.90;;;;;;5048129;28;20206;-60
2022/05/03 10:12:41;;;;;;;1.55;1.20;;;36.50;99.90;;;;;;5047030;28;20619;-59
2022/05/03 10:15:09;;;;;;;2.25;1.77;;;34.40;99.90;;;;;;5030652;28;20211;-60
2022/05/03 10:20:36;;;;;;;2.92;1.58;;;32.90;99.90;;;;;;5031395;28;20200;-59
2022/05/03 10:23:24;;;;;;;2.17;1.42;;;33.50;99.90;;;;;;5009148;28;20314;-59
2022/05/03 10:25:52;;;;;;;1.45;1.20;;;34.10;99.90;;;;;;5045332;28;20195;-59
2022/05/03 10:28:20;;;;;;;2.25;1.30;;;34.20;99.90;;;;;;5046231;28;20233;-60
2022/05/03 10:31:05;;;;;;;1.58;1.35;;;35.10;99.90;;;;;;5047127;28;20887;-59
2022/05/03 10:33:32;;;;;;;2.00;1.52;;;32.30;99.90;;;;;;5049545;28;20218;-60
2022/05/03 10:36:00;;;;;;;5.97;1.73;;;28.80;99.90;;;;;;5045951;28;20235;-63
2022/05/03 10:38:39;;;;;;;3.47;1.48;;;27.80;99.90;;;;;;5015763;28;20294;-59
2022/05/03 10:41:08;;;;;;;1.95;1.55;;;29.40;99.90;;;;;;5023171;28;20195;-59
2022/05/03 10:43:37;;;;;;;2.45;1.80;;;30.80;99.90;;;;;;5047720;28;20211;-59
2022/05/03 10:46:12;;;;;;;3.90;1.60;;;32.40;99.90;;;;;;5027736;28;20264;-60
2022/05/03 10:48:41;;;;;;;1.63;1.48;;;33.20;99.90;;;;;;5045440;28;20196;-59
2022/05/03 10:51:11;;;;;;;2.83;1.75;;;33.50;99.90;;;;;;5044811;28;20236;-59
2022/05/03 10:53:41;;;;;;;1.95;1.63;;;32.10;99.90;;;;;;5046010;28;20203;-60
2022/05/03 10:56:17;;;;;;;1.70;1.60;;;31.40;99.90;;;;;;5027186;28;20295;-59
2022/05/03 10:59:20;;;;;;;4.03;1.65;;;30.50;99.90;;;;;;5045416;28;20195;-60
2022/05/03 11:01:56;;;;;;;2.03;1.83;;;30.60;99.90;;;;;;5024425;28;20219;-60
2022/05/03 11:04:26;;;;;;;3.60;1.90;;;30.90;99.90;;;;;;5029070;28;20668;-59
2022/05/03 11:06:53;;;;;;;3.42;1.80;;;29.60;99.90;;;;;;5046833;28;20279;-59
2022/05/03 11:09:28;;;;;;;2.38;2.08;;;30.10;99.90;;;;;;5036462;28;20216;-59
2022/05/03 11:12:01;;;;;;;3.33;2.47;;;29.20;99.90;;;;;;5010706;28;20203;-62
2022/05/03 11:14:29;;;;;;;3.65;2.10;;;28.90;99.90;;;;;;5051187;28;20227;-59
2022/05/03 11:17:12;;;;;;;5.32;1.92;;;29.60;99.90;;;;;;5050093;28;20231;-60
2022/05/03 11:19:50;;;;;;;4.30;2.30;;;31.10;99.90;;;;;;5022467;28;20215;-59
2022/05/03 11:22:27;;;;;;;2.40;2.20;;;30.00;99.90;;;;;;5051586;28;20203;-59
2022/05/03 11:25:07;;;;;;;3.97;2.67;;;29.00;99.90;;;;;;5048180;28;20187;-59
2022/05/03 11:27:35;;;;;;;2.75;2.30;;;27.30;99.90;;;;;;5050908;28;20233;-59
2022/05/03 11:30:08;;;;;;;4.43;2.28;;;29.30;99.90;;;;;;5048928;28;20673;-60
2022/05/03 11:32:38;;;;;;;3.17;2.50;;;30.30;99.90;;;;;;5025240;28;20228;-60
2022/05/03 11:35:13;;;;;;;5.50;3.10;;;30.60;99.90;;;;;;5049330;28;20207;-60
2022/05/03 11:37:52;;;;;;;3.58;3.05;;;31.40;99.90;;;;;;5031609;28;20252;-60
2022/05/03 11:40:22;;;;;;;3.95;2.58;;;29.10;99.90;;;;;;5046636;28;20191;-59
2022/05/03 11:42:49;;;;;;;3.35;2.92;;;28.10;99.90;;;;;;5028193;28;20227;-60
2022/05/03 11:45:18;;;;;;;4.35;3.20;;;27.40;99.90;;;;;;5050497;28;20192;-59
2022/05/03 11:47:47;;;;;;;3.20;2.88;;;28.10;99.90;;;;;;5047775;28;20211;-60
2022/05/03 11:56:01;;;;;;;4.03;3.35;;;28.00;99.90;;;;;;5034685;28;20198;-60
2022/05/03 11:58:30;;;;;;;4.53;3.38;;;27.80;99.90;;;;;;5047181;28;20222;-59
2022/05/03 12:00:57;;;;;;;5.13;4.05;;;28.00;99.90;;;;;;5049292;28;20269;-58
2022/05/03 12:03:24;;;;;;;4.25;3.30;;;28.20;99.90;;;;;;5031092;28;20298;-59
2022/05/03 12:06:03;;;;;;;4.40;3.70;;;27.80;99.90;;;;;;5050108;28;20651;-59
2022/05/03 12:08:31;;;;;;;4.60;3.80;;;26.40;99.90;;;;;;5029383;28;20233;-58
2022/05/03 12:10:58;;;;;;;5.05;3.92;;;25.60;99.90;;;;;;5047749;28;20606;-59
2022/05/03 12:13:30;;;;;;;5.60;3.65;;;26.00;99.90;;;;;;5046436;28;20207;-59
2022/05/03 12:15:57;;;;;;;4.55;3.53;;;25.60;99.90;;;;;;5030103;28;20203;-59
2022/05/03 12:18:37;;;;;;;4.85;3.58;;;26.50;99.90;;;;;;5046599;28;20651;-59
2022/05/03 12:21:14;;;;;;;5.03;4.53;;;26.40;99.90;;;;;;5044598;28;20278;-59
2022/05/03 12:23:47;;;;;;;4.70;3.88;;;25.80;99.90;;;;;;5042110;28;20870;-59
2022/05/03 12:27:05;;;;;;;6.15;4.75;;;25.40;99.90;;;;;;5019116;28;20290;-59
2022/05/03 12:31:12;;;;;;;5.28;4.50;;;25.10;99.90;;;;;;5033261;28;20217;-59
2022/05/03 12:35:19;;;;;;;5.88;4.68;;;25.40;99.90;;;;;;5042237;28;20698;-59
2022/05/03 12:38:49;;;;;;;5.93;4.63;;;26.00;99.90;;;;;;5048575;28;20249;-59
2022/05/03 12:41:30;;;;;;;6.03;4.30;;;26.10;99.90;;;;;;5026588;28;20194;-58
2022/05/03 12:44:09;;;;;;;7.57;4.95;;;26.10;99.90;;;;;;5048761;28;20744;-59
2022/05/03 12:46:38;;;;;;;6.15;4.80;;;24.00;99.90;;;;;;5032646;28;20199;-59
2022/05/03 12:49:11;;;;;;;8.00;5.25;;;23.10;99.90;;;;;;5047322;28;20191;-59
2022/05/03 12:51:43;;;;;;;8.05;5.28;;;22.50;99.90;;;;;;5045664;28;20199;-59
2022/05/03 12:54:11;;;;;;;5.82;5.32;;;22.30;99.90;;;;;;5050998;28;20604;-61
2022/05/03 12:59:27;;;;;;;5.43;4.75;;;22.30;99.90;;;;;;5043546;28;20195;-59
2022/05/03 13:01:55;;;;;;;5.97;5.38;;;23.10;99.90;;;;;;5046411;28;20238;-60
2022/05/03 13:04:23;;;;;;;5.65;4.90;;;23.20;99.90;;;;;;5050746;28;20234;-59
2022/05/03 13:06:52;;;;;;;4.90;4.35;;;23.30;99.90;;;;;;5052054;28;20963;-58
2022/05/03 13:09:20;;;;;;;5.18;4.60;;;23.20;99.90;;;;;;5015101;28;20230;-58
2022/05/03 13:11:55;;;;;;;7.35;4.22;;;23.00;99.90;;;;;;5049545;28;20195;-58
2022/05/03 13:14:22;;;;;;;5.20;4.30;;;23.10;99.90;;;;;;5051985;28;20196;-58
2022/05/03 13:16:49;;;;;;;7.80;4.70;;;23.10;99.90;;;;;;5051572;28;20203;-58
2022/05/03 13:19:16;;;;;;;6.18;5.57;;;23.00;99.90;;;;;;5032126;28;20188;-60
2022/05/03 13:21:43;;;;;;;7.88;5.90;;;22.30;99.90;;;;;;5050082;28;20302;-59
2022/05/03 13:24:12;;;;;;;7.20;4.95;;;21.40;99.90;;;;;;5045329;28;20214;-59
2022/05/03 13:26:40;;;;;;;6.88;4.53;;;21.30;99.90;;;;;;5043857;28;20252;-59
2022/05/03 13:29:10;;;;;;;6.13;5.10;;;21.80;99.90;;;;;;5048443;28;20541;-59
2022/05/03 13:31:38;;;;;;;7.25;5.43;;;22.10;99.90;;;;;;5018457;28;20214;-59
2022/05/03 13:34:09;;;;;;;8.05;4.93;;;21.30;99.90;;;;;;5031221;28;20596;-59
2022/05/03 13:42:10;;;;;;;7.18;5.20;;;21.10;99.90;;;;;;5049388;28;20704;-60
2022/05/03 13:44:39;;;;;;;5.13;4.47;;;20.70;99.90;;;;;;5051368;28;20490;-60
2022/05/03 13:47:08;;;;;;;5.88;4.57;;;20.70;99.90;;;;;;5046707;28;20200;-60
2022/05/03 13:49:37;;;;;;;8.45;5.15;;;21.40;99.90;;;;;;5025002;28;20191;-59
2022/05/03 13:52:05;;;;;;;5.15;4.65;;;22.00;99.90;;;;;;5049514;28;20237;-61
2022/05/03 13:54:34;;;;;;;6.50;4.78;;;22.40;99.90;;;;;;5051503;28;20238;-59
2022/05/03 13:57:02;;;;;;;5.57;4.60;;;22.30;99.90;;;;;;5045476;28;20192;-59
2022/05/03 13:59:29;;;;;;;5.53;4.28;;;22.40;99.90;;;;;;5052632;28;20211;-59
2022/05/03 14:01:56;;;;;;;6.00;5.40;;;22.70;99.90;;;;;;5026636;28;20658;-59
2022/05/03 14:04:24;;;;;;;4.75;4.30;;;22.10;99.90;;;;;;5027818;28;20215;-60
2022/05/03 14:06:51;;;;;;;5.95;4.60;;;21.70;99.90;;;;;;5042455;28;20211;-59